createdAt,value
2018-11-22T00:10:54.747Z,80.23
2018-11-22T00:16:08.741Z,80.45
2018-11-22T00:21:22.365Z,81.14
2018-11-22T00:26:54.162Z,81.43
2018-11-22T00:32:01.929Z,81.56
2018-11-22T00:37:34.086Z,82.05
2018-11-22T00:42:28.627Z,82.46
2018-11-22T00:47:23.142Z,83.08
2018-11-22T00:52:37.201Z,82.26
2018-11-22T00:57:51.929Z,83.00
2018-11-22T01:08:34.567Z,82.84
2018-11-22T01:13:48.531Z,82.40
2018-11-22T01:19:03.382Z,82.90
2018-11-22T01:24:10.447Z,83.37
2018-11-22T01:29:24.409Z,82.61
2018-11-22T01:34:38.896Z,82.51
2018-11-22T01:56:40.171Z,82.50
2018-11-22T02:01:34.821Z,83.03
2018-11-22T02:13:01.728Z,83.35
2018-11-22T02:18:09.716Z,83.99
2018-11-22T02:23:23.679Z,84.85
2018-11-22T02:33:54.214Z,85.19
2018-11-22T02:39:09.585Z,85.21
2018-11-22T02:44:23.590Z,85.73
2018-11-22T03:00:49.610Z,85.45
2018-11-22T03:06:02.641Z,85.33
2018-11-22T03:16:33.581Z,85.50
2018-11-22T03:27:50.479Z,85.26
2018-11-22T03:32:57.672Z,85.74
2018-11-22T03:37:52.267Z,86.16
2018-11-22T03:44:04.158Z,85.82
2018-11-22T03:54:54.786Z,84.06
2018-11-22T04:05:39.563Z,84.99
2018-11-22T04:10:53.592Z,85.23
2018-11-22T04:16:06.514Z,85.41
2018-11-22T04:21:18.137Z,84.98
2018-11-22T04:26:32.093Z,84.99
2018-11-22T04:43:16.578Z,84.63
2018-11-22T04:48:30.226Z,85.26
2018-11-22T04:53:37.906Z,85.89
2018-11-22T04:58:32.596Z,86.32
2018-11-22T05:03:46.556Z,86.33
2018-11-22T05:09:18.529Z,86.35
2018-11-22T05:14:25.748Z,85.81
2018-11-22T05:19:40.185Z,85.83
2018-11-22T05:24:34.813Z,85.52
2018-11-22T05:30:43.910Z,85.74
2018-11-22T05:35:57.963Z,86.56
2018-11-22T05:52:29.994Z,86.16
2018-11-22T05:57:43.130Z,86.62
2018-11-22T06:02:51.103Z,86.80
2018-11-22T06:08:45.366Z,85.91
2018-11-22T06:13:59.444Z,85.89
2018-11-22T06:24:12.290Z,86.51
2018-11-22T06:29:27.514Z,85.26
2018-11-22T06:34:41.589Z,85.30
2018-11-22T06:39:49.431Z,84.66
2018-11-22T06:45:03.484Z,85.25
2018-11-22T06:50:12.215Z,85.45
2018-11-22T07:01:26.901Z,85.12
2018-11-22T07:17:56.048Z,83.82
2018-11-22T07:23:28.041Z,83.45
2018-11-22T12:20:40.398Z,76.96
2018-11-22T12:25:35.521Z,77.05
2018-11-22T12:30:34.653Z,75.69
2018-11-22T12:35:36.920Z,76.35
2018-11-22T12:40:35.574Z,77.25
2018-11-22T12:45:34.219Z,76.66
2018-11-22T12:50:33.377Z,77.23
2018-11-22T12:55:36.440Z,76.68
2018-11-22T13:00:35.337Z,76.58
2018-11-22T13:05:34.656Z,76.88
2018-11-22T13:10:29.541Z,76.09
2018-11-22T13:15:25.099Z,77.17
2018-11-22T13:20:21.636Z,77.78
2018-11-22T13:25:18.921Z,76.93
2018-11-22T13:30:20.786Z,76.77
2018-11-22T13:35:16.226Z,77.42
2018-11-22T13:40:12.080Z,77.07
2018-11-22T13:45:09.882Z,76.63
2018-11-22T13:50:06.363Z,76.30
2018-11-22T13:55:01.575Z,76.55
2018-11-22T13:59:59.363Z,75.95
2018-11-22T14:04:58.143Z,76.50
2018-11-22T14:09:58.050Z,76.14
2018-11-22T14:14:58.874Z,76.45
2018-11-22T14:19:53.554Z,76.36
2018-11-22T14:24:48.065Z,77.80
2018-11-22T14:29:42.664Z,76.87
2018-11-22T14:34:37.845Z,77.26
2018-11-22T14:39:32.454Z,76.47
2018-11-22T14:44:27.405Z,77.43
2018-11-22T14:49:22.073Z,78.37
2018-11-22T14:54:16.708Z,79.27
2018-11-22T14:59:11.366Z,79.58
2018-11-22T15:04:06.336Z,79.77
2018-11-22T15:09:00.774Z,81.20
2018-11-22T15:13:55.856Z,80.66
2018-11-22T15:18:51.711Z,81.86
2018-11-22T15:23:47.398Z,82.27
2018-11-22T15:28:41.946Z,82.79
2018-11-22T15:33:36.497Z,83.87
2018-11-22T15:38:31.050Z,84.11
2018-11-22T15:43:26.574Z,83.99
2018-11-22T15:48:21.606Z,85.20
2018-11-22T15:53:16.236Z,85.83
2018-11-22T15:58:10.993Z,86.59
2018-11-22T16:03:07.224Z,87.04
2018-11-22T16:08:02.857Z,87.90
2018-11-22T16:13:16.072Z,88.02
2018-11-22T16:18:11.125Z,88.53
2018-11-22T16:23:06.991Z,88.43
2018-11-22T16:28:02.008Z,88.04
2018-11-22T16:32:56.794Z,88.42
2018-11-22T16:37:51.381Z,88.76
2018-11-22T16:42:47.382Z,89.37
2018-11-22T16:47:41.885Z,89.66
2018-11-22T16:52:38.126Z,89.47
2018-11-22T16:57:33.010Z,89.45
2018-11-22T17:02:34.568Z,90.44
2018-11-22T17:07:29.273Z,90.98
2018-11-22T17:12:24.015Z,91.37
2018-11-22T17:17:18.596Z,91.61
2018-11-22T17:22:14.673Z,92.31
2018-11-22T17:27:09.596Z,92.19
2018-11-22T17:32:04.174Z,92.57
2018-11-22T17:37:01.968Z,92.72
2018-11-22T17:41:56.908Z,93.21
2018-11-22T17:46:51.474Z,93.26
2018-11-22T17:51:46.873Z,93.98
2018-11-22T17:56:42.578Z,94.38
2018-11-22T18:01:39.942Z,94.76
2018-11-22T18:06:34.863Z,94.76
2018-11-22T18:11:29.445Z,95.41
2018-11-22T18:16:23.999Z,96.31
2018-11-22T18:21:18.841Z,95.29
2018-11-22T18:26:13.369Z,95.21
2018-11-22T18:31:07.982Z,94.80
2018-11-22T18:36:02.579Z,94.96
2018-11-22T18:40:57.328Z,95.00
2018-11-22T18:45:51.968Z,95.54
2018-11-22T18:50:47.714Z,95.82
2018-11-22T18:55:42.269Z,95.85
2018-11-22T19:00:39.319Z,96.20
2018-11-22T19:05:33.931Z,95.33
2018-11-22T19:10:31.687Z,95.37
2018-11-22T19:15:27.631Z,96.14
2018-11-22T19:20:27.042Z,95.91
2018-11-22T19:25:22.246Z,96.52
2018-11-22T19:30:20.653Z,95.90
2018-11-22T19:35:16.525Z,96.52
2018-11-22T19:40:16.556Z,97.23
2018-11-22T19:45:13.139Z,96.62
2018-11-22T19:50:11.707Z,96.82
2018-11-22T19:55:08.090Z,95.32
2018-11-22T20:00:02.662Z,95.57
2018-11-22T20:04:57.190Z,95.53
2018-11-22T20:09:51.954Z,95.58
2018-11-22T20:14:46.622Z,96.49
2018-11-22T20:19:41.191Z,96.02
2018-11-22T20:24:36.052Z,94.99
2018-11-22T20:29:32.997Z,95.82
2018-11-22T20:34:28.122Z,94.62
2018-11-22T20:39:23.947Z,94.36
2018-11-22T20:44:21.404Z,94.52
2018-11-22T20:49:18.472Z,95.15
2018-11-22T20:54:15.616Z,94.18
2018-11-22T20:59:10.271Z,94.81
2018-11-22T21:04:05.266Z,94.51
2018-11-22T21:09:02.590Z,94.91
2018-11-22T21:13:57.856Z,95.61
2018-11-22T21:18:52.329Z,94.18
2018-11-22T21:23:47.185Z,94.92
2018-11-22T21:28:41.847Z,94.48
2018-11-22T21:33:36.433Z,94.26
2018-11-22T21:38:30.907Z,94.81
2018-11-22T21:43:25.417Z,93.83
2018-11-22T21:48:19.909Z,94.71
2018-11-22T21:53:14.500Z,93.69
2018-11-22T21:58:08.985Z,92.47
2018-11-22T22:03:05.224Z,92.42
2018-11-22T22:07:59.707Z,92.56
2018-11-22T22:13:02.538Z,92.42
2018-11-22T22:17:57.373Z,92.86
2018-11-22T22:22:51.869Z,92.98
2018-11-22T22:27:46.825Z,91.92
2018-11-22T22:32:41.763Z,92.90
2018-11-22T22:37:36.394Z,93.13
2018-11-22T22:42:30.870Z,93.90
2018-11-22T22:47:25.362Z,94.04
2018-11-22T22:52:19.989Z,93.97
2018-11-22T22:57:14.510Z,92.73
2018-11-22T23:02:09.133Z,92.05
2018-11-22T23:07:03.596Z,92.41
2018-11-22T23:11:58.132Z,93.34
2018-11-22T23:16:52.667Z,93.13
2018-11-22T23:21:47.145Z,93.77
2018-11-22T23:26:41.618Z,93.83
2018-11-22T23:31:36.202Z,93.23
2018-11-22T23:36:30.689Z,93.19
2018-11-22T23:41:25.181Z,92.71
2018-11-22T23:46:19.669Z,93.69
2018-11-22T23:51:14.194Z,94.14
2018-11-22T23:56:08.668Z,94.02
